Time;durP1;ratioP1;P1;durP2;ratioP2;P2;SDS_P1;SDS_P2;PMS_P1;PMS_P2;Temp;Humidity;BMP_temperature;BMP_pressure;BME280_temperature;BME280_humidity;BME280_pressure;Samples;Min_cycle;Max_cycle;Signal;HPM_P1;HPM_P2
2021/01/11 00:00:10;;;;;;;41.35;21.02;;;;;;;;;;5004326;28;20128;-82
2021/01/11 00:02:37;;;;;;;38.55;19.05;;;;;;;;;;4996627;28;20033;-81
2021/01/11 00:05:03;;;;;;;38.80;19.00;;;;;;;;;;5003595;28;20045;-82
2021/01/11 00:07:29;;;;;;;44.63;21.65;;;;;;;;;;4994599;28;20097;-81
2021/01/11 00:09:55;;;;;;;39.65;20.40;;;;;;;;;;4997963;28;20526;-81
2021/01/11 00:12:27;;;;;;;37.78;19.35;;;;;;;;;;5004951;28;20026;-81
2021/01/11 00:14:53;;;;;;;41.35;20.15;;;;;;;;;;5002673;28;20034;-81
2021/01/11 00:17:19;;;;;;;33.63;18.25;;;;;;;;;;5003038;28;20033;-81
2021/01/11 00:19:46;;;;;;;38.58;19.40;;;;;;;;;;5002237;28;20026;-81
2021/01/11 00:22:12;;;;;;;35.45;18.38;;;;;;;;;;4999496;28;20372;-81
2021/01/11 00:24:38;;;;;;;36.03;18.17;;;;;;;;;;4999505;28;20091;-81
2021/01/11 00:27:04;;;;;;;35.80;18.98;;;;;;;;;;4998176;28;20395;-81
2021/01/11 00:29:30;;;;;;;39.05;16.25;;;;;;;;;;4998912;28;20065;-81
2021/01/11 00:31:59;;;;;;;35.33;16.55;;;;;;;;;;5015629;28;20029;-81
2021/01/11 00:34:25;;;;;;;47.40;19.83;;;;;;;;;;5019044;28;20033;-83
2021/01/11 00:36:58;;;;;;;39.55;17.92;;;;;;;;;;5012239;28;20026;-80
2021/01/11 00:39:24;;;;;;;38.22;17.50;;;;;;;;;;5001737;28;20022;-81
2021/01/11 00:41:55;;;;;;;42.80;18.17;;;;;;;;;;5001169;28;20033;-81
2021/01/11 00:44:22;;;;;;;45.28;20.65;;;;;;;;;;4982988;28;20026;-81
2021/01/11 00:46:48;;;;;;;47.20;19.48;;;;;;;;;;4998213;28;20026;-83
2021/01/11 00:49:14;;;;;;;45.95;19.48;;;;;;;;;;4994462;28;20029;-81
2021/01/11 00:51:40;;;;;;;57.97;21.38;;;;;;;;;;5001132;28;20041;-81
2021/01/11 00:54:06;;;;;;;93.75;24.45;;;;;;;;;;4987874;28;20431;-82
2021/01/11 00:56:33;;;;;;;67.38;20.05;;;;;;;;;;4998242;28;20034;-81
2021/01/11 00:58:59;;;;;;;45.10;19.90;;;;;;;;;;4998026;28;20731;-81
2021/01/11 01:01:25;;;;;;;36.95;17.10;;;;;;;;;;5000992;28;20029;-81
2021/01/11 01:03:51;;;;;;;40.97;18.05;;;;;;;;;;5001129;28;20068;-81
2021/01/11 01:06:18;;;;;;;38.22;17.38;;;;;;;;;;5011251;28;20030;-84
2021/01/11 01:08:44;;;;;;;38.78;18.35;;;;;;;;;;4996239;28;20038;-81
2021/01/11 01:11:11;;;;;;;34.70;18.25;;;;;;;;;;4987129;28;20600;-81
2021/01/11 01:13:37;;;;;;;38.95;18.02;;;;;;;;;;5000583;28;20068;-81
2021/01/11 01:16:04;;;;;;;39.88;18.80;;;;;;;;;;4999481;28;20034;-81
2021/01/11 01:18:30;;;;;;;36.15;16.30;;;;;;;;;;5000296;28;20026;-81
2021/01/11 01:20:56;;;;;;;46.90;19.80;;;;;;;;;;4985985;28;20026;-80
2021/01/11 01:23:22;;;;;;;48.28;20.20;;;;;;;;;;4998878;28;20080;-80
2021/01/11 01:25:48;;;;;;;41.40;18.92;;;;;;;;;;4996067;28;20060;-80
2021/01/11 01:28:14;;;;;;;50.08;20.90;;;;;;;;;;4984068;28;20085;-80
2021/01/11 01:30:40;;;;;;;56.10;23.88;;;;;;;;;;4984763;28;20049;-81
2021/01/11 01:33:06;;;;;;;55.50;21.30;;;;;;;;;;5009461;28;20033;-81
2021/01/11 01:35:32;;;;;;;173.70;29.85;;;;;;;;;;4978923;28;20037;-80
2021/01/11 01:37:59;;;;;;;196.52;34.42;;;;;;;;;;4983816;28;20121;-81
2021/01/11 01:40:25;;;;;;;223.50;32.88;;;;;;;;;;4996532;28;20485;-80
2021/01/11 01:42:52;;;;;;;64.72;22.52;;;;;;;;;;5008107;28;20073;-80
2021/01/11 01:45:18;;;;;;;52.22;20.73;;;;;;;;;;4980435;28;20077;-81
2021/01/11 01:47:44;;;;;;;56.65;20.77;;;;;;;;;;4985927;28;20546;-80
2021/01/11 01:50:11;;;;;;;246.68;33.92;;;;;;;;;;4997894;28;20030;-81
2021/01/11 01:52:38;;;;;;;112.60;25.02;;;;;;;;;;4982420;28;20428;-81
2021/01/11 01:55:05;;;;;;;44.40;19.42;;;;;;;;;;4983899;28;20061;-80
2021/01/11 01:57:31;;;;;;;45.83;19.30;;;;;;;;;;4988912;28;20057;-81
2021/01/11 01:59:57;;;;;;;46.67;19.98;;;;;;;;;;4984393;28;20069;-80
2021/01/11 02:02:23;;;;;;;45.30;19.17;;;;;;;;;;4978529;28;20022;-80
2021/01/11 02:04:49;;;;;;;41.88;17.95;;;;;;;;;;5004161;28;20025;-80
2021/01/11 02:07:24;;;;;;;44.78;18.48;;;;;;;;;;4997386;28;20149;-80
2021/01/11 02:09:50;;;;;;;37.83;18.00;;;;;;;;;;4985137;28;20034;-80
2021/01/11 02:12:19;;;;;;;41.58;18.75;;;;;;;;;;4991756;28;20050;-80
2021/01/11 02:15:08;;;;;;;41.97;18.55;;;;;;;;;;5001802;28;20018;-80
2021/01/11 02:17:37;;;;;;;44.88;20.20;;;;;;;;;;4985353;28;20030;-80
2021/01/11 02:20:03;;;;;;;52.17;21.15;;;;;;;;;;4985310;28;20022;-80
2021/01/11 02:22:37;;;;;;;42.25;20.77;;;;;;;;;;4981423;28;20400;-80
2021/01/11 02:25:42;;;;;;;40.15;19.60;;;;;;;;;;4993018;28;20385;-82
2021/01/11 02:28:29;;;;;;;50.60;21.30;;;;;;;;;;4893425;29;20027;-80
2021/01/11 02:30:58;;;;;;;62.35;19.90;;;;;;;;;;4913768;29;20023;-80
2021/01/11 02:33:25;;;;;;;87.70;20.73;;;;;;;;;;4987618;28;20097;-80
2021/01/11 02:35:59;;;;;;;68.97;21.23;;;;;;;;;;4982708;28;20050;-80
2021/01/11 02:38:26;;;;;;;93.25;23.38;;;;;;;;;;4972832;28;20030;-80
2021/01/11 02:40:53;;;;;;;61.50;19.92;;;;;;;;;;4985217;28;20101;-79
2021/01/11 02:43:19;;;;;;;52.53;20.17;;;;;;;;;;5000558;28;20026;-79
2021/01/11 02:45:45;;;;;;;54.80;22.40;;;;;;;;;;4993036;28;20037;-80
2021/01/11 02:48:11;;;;;;;58.80;21.95;;;;;;;;;;5000369;28;20029;-80
2021/01/11 02:50:58;;;;;;;59.72;18.15;;;;;;;;;;4999963;28;20033;-80
2021/01/11 02:53:29;;;;;;;86.63;20.17;;;;;;;;;;4971054;28;20022;-80
2021/01/11 02:55:57;;;;;;;82.00;21.80;;;;;;;;;;5015125;28;20021;-80
2021/01/11 02:58:33;;;;;;;78.25;21.27;;;;;;;;;;4984186;28;20046;-81
2021/01/11 03:00:59;;;;;;;129.50;26.05;;;;;;;;;;5013365;28;20033;-80
2021/01/11 03:03:26;;;;;;;159.32;25.98;;;;;;;;;;4987879;28;20061;-80
2021/01/11 03:05:53;;;;;;;59.72;19.15;;;;;;;;;;4989977;28;20026;-80
2021/01/11 03:08:23;;;;;;;57.25;19.25;;;;;;;;;;4987477;28;20093;-81
2021/01/11 03:10:51;;;;;;;59.85;17.92;;;;;;;;;;4994803;28;20560;-80
2021/01/11 03:13:17;;;;;;;72.22;20.65;;;;;;;;;;4994137;28;20042;-80
2021/01/11 03:15:43;;;;;;;78.05;21.25;;;;;;;;;;5002222;28;20026;-80
2021/01/11 03:18:09;;;;;;;60.33;18.42;;;;;;;;;;4983923;28;20070;-80
2021/01/11 03:20:35;;;;;;;78.68;21.70;;;;;;;;;;5001276;28;20038;-80
2021/01/11 03:23:01;;;;;;;53.83;19.38;;;;;;;;;;4984985;28;20035;-80
2021/01/11 03:25:28;;;;;;;73.80;21.02;;;;;;;;;;4984193;28;20033;-80
2021/01/11 03:27:54;;;;;;;124.45;25.58;;;;;;;;;;4983384;28;20050;-80
2021/01/11 03:30:21;;;;;;;78.68;20.80;;;;;;;;;;5009800;28;20026;-80
2021/01/11 03:32:51;;;;;;;67.75;22.13;;;;;;;;;;4999942;28;20037;-79
2021/01/11 03:35:17;;;;;;;137.77;25.67;;;;;;;;;;4983745;28;20034;-80
2021/01/11 03:37:43;;;;;;;121.05;23.40;;;;;;;;;;4986134;28;20542;-79
2021/01/11 03:40:09;;;;;;;105.18;22.60;;;;;;;;;;5006848;28;20030;-80
2021/01/11 03:42:39;;;;;;;120.82;24.70;;;;;;;;;;4983612;28;20030;-79
2021/01/11 03:45:06;;;;;;;95.07;22.80;;;;;;;;;;4994821;28;20597;-80
2021/01/11 03:47:32;;;;;;;151.95;24.83;;;;;;;;;;4996975;28;20094;-80
2021/01/11 03:49:59;;;;;;;128.80;23.70;;;;;;;;;;5006622;28;20037;-80
2021/01/11 03:52:25;;;;;;;103.82;22.40;;;;;;;;;;5003697;28;20042;-80
2021/01/11 03:54:52;;;;;;;140.73;22.95;;;;;;;;;;4989247;28;20146;-80
2021/01/11 03:57:18;;;;;;;127.80;22.55;;;;;;;;;;5001281;28;20033;-80
2021/01/11 03:59:44;;;;;;;139.88;25.05;;;;;;;;;;4986057;28;20018;-80
2021/01/11 04:02:11;;;;;;;79.85;18.75;;;;;;;;;;5009140;28;20011;-80
2021/01/11 04:04:37;;;;;;;156.52;24.90;;;;;;;;;;5000011;28;20032;-80
2021/01/11 04:07:03;;;;;;;144.35;25.33;;;;;;;;;;4999504;28;20084;-80
2021/01/11 04:09:29;;;;;;;264.33;30.55;;;;;;;;;;4999898;28;20447;-80
2021/01/11 04:11:55;;;;;;;201.63;28.83;;;;;;;;;;5013570;28;20439;-80
2021/01/11 04:14:21;;;;;;;230.05;29.83;;;;;;;;;;4986748;28;20041;-80
2021/01/11 04:16:51;;;;;;;209.60;30.52;;;;;;;;;;4979554;28;20124;-80
2021/01/11 04:19:22;;;;;;;318.80;37.63;;;;;;;;;;4990442;28;20123;-80
2021/01/11 04:21:48;;;;;;;310.52;34.20;;;;;;;;;;4988023;28;20038;-80
2021/01/11 04:24:14;;;;;;;256.58;31.80;;;;;;;;;;4983224;28;20137;-81
2021/01/11 04:26:44;;;;;;;280.20;36.03;;;;;;;;;;4982564;28;20030;-81
2021/01/11 04:29:10;;;;;;;195.85;29.73;;;;;;;;;;4991960;28;20098;-80
2021/01/11 04:31:36;;;;;;;138.10;24.92;;;;;;;;;;5002415;28;20036;-81
2021/01/11 04:34:03;;;;;;;127.32;24.02;;;;;;;;;;5000519;28;20093;-80
2021/01/11 04:36:33;;;;;;;189.43;29.60;;;;;;;;;;5001141;28;20034;-81
2021/01/11 04:38:59;;;;;;;107.80;24.92;;;;;;;;;;5002772;28;20176;-83
2021/01/11 04:41:25;;;;;;;55.47;19.05;;;;;;;;;;5015827;28;20017;-82
2021/01/11 04:43:53;;;;;;;56.17;19.20;;;;;;;;;;5005531;28;20064;-81
2021/01/11 04:46:20;;;;;;;50.45;19.67;;;;;;;;;;4990958;28;20046;-82
2021/01/11 04:48:46;;;;;;;46.88;18.70;;;;;;;;;;4997208;28;20042;-80
2021/01/11 04:51:12;;;;;;;63.75;21.40;;;;;;;;;;4989641;28;20049;-80
2021/01/11 04:53:42;;;;;;;190.02;27.95;;;;;;;;;;4986450;28;20041;-81
2021/01/11 04:56:10;;;;;;;73.43;18.77;;;;;;;;;;4983440;28;20022;-81
2021/01/11 04:58:56;;;;;;;51.78;18.95;;;;;;;;;;4993003;28;20056;-83
2021/01/11 05:01:24;;;;;;;44.83;17.35;;;;;;;;;;4998465;28;20026;-83
2021/01/11 05:03:51;;;;;;;36.80;15.38;;;;;;;;;;5004946;28;20037;-83
2021/01/11 05:06:18;;;;;;;37.50;17.10;;;;;;;;;;5017310;28;20036;-82
2021/01/11 05:08:44;;;;;;;43.20;16.92;;;;;;;;;;5017645;28;20022;-84
2021/01/11 05:11:10;;;;;;;41.88;16.30;;;;;;;;;;5017999;28;20021;-82
2021/01/11 05:13:37;;;;;;;35.47;15.68;;;;;;;;;;5032911;28;20014;-83
2021/01/11 05:16:13;;;;;;;42.80;16.55;;;;;;;;;;5040041;28;20045;-84
2021/01/11 05:18:39;;;;;;;51.13;16.85;;;;;;;;;;5040143;28;20044;-83
2021/01/11 05:21:05;;;;;;;39.30;14.68;;;;;;;;;;5039590;28;20009;-83
2021/01/11 05:23:35;;;;;;;36.03;15.48;;;;;;;;;;5020440;28;20057;-83
2021/01/11 05:26:11;;;;;;;32.75;13.63;;;;;;;;;;5020075;28;20026;-84
2021/01/11 05:28:37;;;;;;;33.60;13.05;;;;;;;;;;5020349;28;20026;-83
2021/01/11 05:31:03;;;;;;;34.00;12.85;;;;;;;;;;5020397;28;20041;-83
2021/01/11 05:33:29;;;;;;;33.22;13.77;;;;;;;;;;5020070;28;20029;-83
2021/01/11 05:36:03;;;;;;;35.05;15.05;;;;;;;;;;5019982;28;20125;-83
2021/01/11 05:38:33;;;;;;;36.60;15.32;;;;;;;;;;5020134;28;20026;-83
2021/01/11 05:41:11;;;;;;;37.90;15.48;;;;;;;;;;5020417;28;20021;-83
2021/01/11 05:43:37;;;;;;;30.38;13.80;;;;;;;;;;5020511;28;20085;-84
2021/01/11 05:46:21;;;;;;;32.88;15.40;;;;;;;;;;5016635;28;20038;-83
2021/01/11 05:48:56;;;;;;;23.27;10.90;;;;;;;;;;5010596;28;20040;-84
2021/01/11 05:51:25;;;;;;;33.25;13.23;;;;;;;;;;5018555;28;20045;-84
2021/01/11 05:53:51;;;;;;;30.92;13.13;;;;;;;;;;5023274;28;20021;-82
2021/01/11 05:56:18;;;;;;;39.35;17.30;;;;;;;;;;5025139;28;20032;-83
2021/01/11 05:59:02;;;;;;;42.45;17.15;;;;;;;;;;5025019;28;20033;-84
2021/01/11 06:04:32;;;;;;;40.75;16.73;;;;;;;;;;5038882;28;20048;-84
2021/01/11 06:06:59;;;;;;;42.80;15.82;;;;;;;;;;5004965;28;20038;-84
2021/01/11 06:09:25;;;;;;;35.25;14.20;;;;;;;;;;5004873;28;20006;-82
2021/01/11 06:11:52;;;;;;;34.15;15.57;;;;;;;;;;5004759;28;20011;-83
2021/01/11 06:14:19;;;;;;;34.85;15.27;;;;;;;;;;5020836;28;20101;-82
2021/01/11 06:16:46;;;;;;;33.63;14.30;;;;;;;;;;5020419;28;20052;-83
2021/01/11 06:19:16;;;;;;;38.25;15.48;;;;;;;;;;5023246;28;20033;-80
2021/01/11 06:22:09;;;;;;;38.42;15.93;;;;;;;;;;5022208;28;20093;-82
2021/01/11 06:24:37;;;;;;;36.50;15.68;;;;;;;;;;5024510;28;20102;-84
2021/01/11 06:27:15;;;;;;;36.35;14.48;;;;;;;;;;5024321;28;20022;-84
2021/01/11 06:29:46;;;;;;;34.22;14.68;;;;;;;;;;5024412;28;20024;-84
2021/01/11 06:32:17;;;;;;;40.35;15.48;;;;;;;;;;5024470;28;20014;-84
2021/01/11 06:34:44;;;;;;;38.30;15.23;;;;;;;;;;5020880;28;20022;-82
2021/01/11 06:37:20;;;;;;;47.58;17.77;;;;;;;;;;5011831;28;20026;-81
2021/01/11 06:40:00;;;;;;;37.08;15.18;;;;;;;;;;5010688;28;20030;-81
2021/01/11 06:42:27;;;;;;;42.90;16.30;;;;;;;;;;5026668;28;20065;-81
2021/01/11 06:45:02;;;;;;;40.08;16.35;;;;;;;;;;5015517;28;20018;-81
2021/01/11 06:47:50;;;;;;;36.65;15.68;;;;;;;;;;5000563;28;20039;-81
2021/01/11 06:50:23;;;;;;;44.42;14.73;;;;;;;;;;4984672;28;20057;-81
2021/01/11 06:52:49;;;;;;;52.40;15.88;;;;;;;;;;4981723;28;20027;-80
2021/01/11 06:55:17;;;;;;;41.53;15.38;;;;;;;;;;4999127;28;20480;-80
2021/01/11 06:57:47;;;;;;;37.33;15.00;;;;;;;;;;5013112;28;20045;-80
2021/01/11 07:00:17;;;;;;;34.92;14.52;;;;;;;;;;5022034;28;20014;-81
2021/01/11 07:02:44;;;;;;;41.03;16.77;;;;;;;;;;5005373;28;20030;-81
2021/01/11 07:05:28;;;;;;;40.08;17.08;;;;;;;;;;5017628;28;20072;-81
2021/01/11 07:08:02;;;;;;;39.88;14.52;;;;;;;;;;5004069;28;20022;-81
2021/01/11 07:10:28;;;;;;;34.28;13.68;;;;;;;;;;5002150;28;20036;-80
2021/01/11 07:13:12;;;;;;;35.63;15.68;;;;;;;;;;4993293;28;20121;-81
2021/01/11 07:15:39;;;;;;;37.70;13.80;;;;;;;;;;4979742;28;20030;-81
2021/01/11 07:18:05;;;;;;;42.08;15.27;;;;;;;;;;5002068;28;20030;-81
2021/01/11 07:20:42;;;;;;;37.33;14.80;;;;;;;;;;4998788;28;20026;-81
2021/01/11 07:23:08;;;;;;;41.75;15.20;;;;;;;;;;4989178;28;20475;-81
2021/01/11 07:25:37;;;;;;;34.67;14.85;;;;;;;;;;5000816;28;20026;-82
2021/01/11 07:28:04;;;;;;;37.67;14.70;;;;;;;;;;4994567;28;20116;-82
2021/01/11 07:30:35;;;;;;;31.35;13.45;;;;;;;;;;5002353;28;20113;-81
2021/01/11 07:33:10;;;;;;;34.30;13.07;;;;;;;;;;5004944;28;20080;-83
2021/01/11 07:35:40;;;;;;;36.22;14.77;;;;;;;;;;4999946;28;20533;-82
2021/01/11 07:38:10;;;;;;;35.90;16.23;;;;;;;;;;5002534;28;20026;-81
2021/01/11 07:40:36;;;;;;;46.28;18.55;;;;;;;;;;5004134;28;20025;-81
2021/01/11 07:43:02;;;;;;;41.13;17.98;;;;;;;;;;5000403;28;20030;-81
2021/01/11 07:45:28;;;;;;;30.40;14.88;;;;;;;;;;4994535;28;20034;-81
2021/01/11 07:47:54;;;;;;;32.28;15.00;;;;;;;;;;5019558;28;20025;-82
2021/01/11 07:50:27;;;;;;;28.52;12.65;;;;;;;;;;4995144;28;20057;-81
2021/01/11 07:52:57;;;;;;;21.17;10.68;;;;;;;;;;5018158;28;20022;-81
2021/01/11 07:55:29;;;;;;;27.92;11.95;;;;;;;;;;5017969;28;20026;-82
2021/01/11 07:58:03;;;;;;;23.60;12.13;;;;;;;;;;4999320;28;20113;-81
2021/01/11 08:00:30;;;;;;;37.67;18.20;;;;;;;;;;4994160;28;20125;-82
2021/01/11 08:03:04;;;;;;;37.93;18.70;;;;;;;;;;4995236;28;20689;-83
2021/01/11 08:05:30;;;;;;;38.63;17.77;;;;;;;;;;5000803;28;20952;-83
2021/01/11 08:08:06;;;;;;;34.40;18.73;;;;;;;;;;4997840;28;20264;-82
2021/01/11 08:10:43;;;;;;;33.30;18.03;;;;;;;;;;4999823;28;20273;-80
2021/01/11 08:13:19;;;;;;;31.83;17.47;;;;;;;;;;4997110;28;20272;-79
2021/01/11 08:15:54;;;;;;;30.00;16.43;;;;;;;;;;4987484;28;20358;-80
2021/01/11 08:18:23;;;;;;;27.37;15.17;;;;;;;;;;4997794;28;20407;-80
2021/01/11 08:24:15;;;;;;;23.08;14.43;;;;;;;;;;5009032;28;20267;-80
2021/01/11 08:30:15;;;;;;;;;;;;;;;;;;;;;
2021/01/11 08:32:42;;;;;;;26.40;15.97;;;;;;;;;;5014274;28;20021;-81
2021/01/11 08:35:18;;;;;;;25.43;15.90;;;;;;;;;;4998956;28;20093;-80
2021/01/11 08:40:33;;;;;;;27.27;15.37;;;;;;;;;;5011596;28;20066;-82
2021/01/11 09:13:25;;;;;;;26.77;17.63;;;;;;;;;;5197382;23;20065;-84
2021/01/11 09:15:55;;;;;;;22.95;16.60;;;;;;;;;;4971864;28;20035;-83
2021/01/11 09:18:30;;;;;;;22.23;15.60;;;;;;;;;;4959976;28;20082;-84
2021/01/11 09:21:52;;;;;;;22.73;17.75;;;;;;;;;;4904956;29;20076;-83
2021/01/11 09:24:42;;;;;;;22.92;16.45;;;;;;;;;;4949368;28;20063;-83
2021/01/11 09:27:11;;;;;;;21.80;16.67;;;;;;;;;;4976711;28;20116;-85
2021/01/11 09:29:37;;;;;;;22.27;16.42;;;;;;;;;;4935218;29;20385;-83
2021/01/11 09:32:04;;;;;;;21.50;16.85;;;;;;;;;;4962972;28;20273;-83
2021/01/11 09:34:30;;;;;;;29.00;23.60;;;;;;;;;;4967526;28;20047;-82
2021/01/11 09:36:56;;;;;;;22.55;18.10;;;;;;;;;;4948135;29;20065;-82
2021/01/11 09:39:22;;;;;;;26.02;18.92;;;;;;;;;;4961383;28;20027;-83
2021/01/11 09:41:50;;;;;;;23.77;19.23;;;;;;;;;;4964936;28;20034;-83
2021/01/11 09:44:17;;;;;;;20.77;15.75;;;;;;;;;;4966190;28;20038;-83
2021/01/11 09:46:53;;;;;;;18.45;14.65;;;;;;;;;;4983295;28;20049;-83
2021/01/11 09:49:19;;;;;;;21.30;14.90;;;;;;;;;;4954507;28;20058;-83
2021/01/11 09:51:46;;;;;;;32.67;28.08;;;;;;;;;;4954817;29;20038;-83
2021/01/11 09:54:12;;;;;;;22.88;15.95;;;;;;;;;;4947915;29;20031;-84
2021/01/11 09:56:39;;;;;;;17.83;14.75;;;;;;;;;;4956294;29;20562;-84
2021/01/11 09:59:09;;;;;;;19.08;15.32;;;;;;;;;;4955607;28;20030;-83
2021/01/11 10:01:41;;;;;;;21.80;16.73;;;;;;;;;;4965305;28;20049;-84
2021/01/11 10:04:07;;;;;;;22.38;16.98;;;;;;;;;;4966872;28;20650;-83
2021/01/11 10:06:37;;;;;;;20.65;15.48;;;;;;;;;;4961089;28;20481;-85
2021/01/11 10:09:04;;;;;;;22.98;16.38;;;;;;;;;;4972873;28;20035;-84
2021/01/11 10:11:30;;;;;;;21.42;15.82;;;;;;;;;;4952985;28;20031;-85
2021/01/11 10:13:56;;;;;;;18.60;14.48;;;;;;;;;;4950197;28;20027;-85
2021/01/11 10:16:22;;;;;;;17.45;13.80;;;;;;;;;;4955050;28;20027;-83
2021/01/11 10:18:48;;;;;;;19.13;14.50;;;;;;;;;;4950301;29;20564;-83
2021/01/11 10:21:14;;;;;;;20.25;14.25;;;;;;;;;;4960323;28;20065;-84
2021/01/11 10:23:40;;;;;;;21.95;14.85;;;;;;;;;;4965698;28;20027;-84
2021/01/11 10:26:06;;;;;;;21.85;15.07;;;;;;;;;;4961491;28;20062;-86
2021/01/11 10:28:37;;;;;;;20.52;15.35;;;;;;;;;;4956164;28;20023;-85
2021/01/11 10:31:04;;;;;;;19.70;14.77;;;;;;;;;;4965304;28;20042;-86
2021/01/11 10:33:36;;;;;;;22.15;14.77;;;;;;;;;;4959911;28;20041;-85
2021/01/11 10:36:02;;;;;;;21.33;15.20;;;;;;;;;;4954680;28;20377;-86
2021/01/11 10:38:31;;;;;;;18.48;14.55;;;;;;;;;;4939988;29;20112;-85
2021/01/11 10:40:57;;;;;;;21.63;15.35;;;;;;;;;;4962223;28;20037;-86
2021/01/11 10:43:26;;;;;;;21.95;16.20;;;;;;;;;;4951514;28;20035;-86
2021/01/11 10:45:59;;;;;;;18.65;14.32;;;;;;;;;;4955480;28;20023;-86
2021/01/11 10:48:42;;;;;;;21.77;16.55;;;;;;;;;;4954093;28;20058;-86
2021/01/11 10:51:14;;;;;;;19.88;16.00;;;;;;;;;;4956226;28;20035;-83
2021/01/11 10:54:04;;;;;;;21.85;18.67;;;;;;;;;;4951072;29;20396;-85
2021/01/11 10:56:52;;;;;;;16.73;13.85;;;;;;;;;;4953791;29;21014;-85
2021/01/11 11:47:42;;;;;;;16.35;12.38;;;;;;;;;;5005232;28;20042;-82
2021/01/11 11:53:36;;;;;;;14.30;11.27;;;;;;;;;;5003702;28;20020;-80
2021/01/11 11:59:14;;;;;;;16.08;11.65;;;;;;;;;;4988005;28;20050;-81
2021/01/11 12:01:44;;;;;;;16.48;12.05;;;;;;;;;;4973138;28;20035;-84
2021/01/11 12:04:42;;;;;;;15.90;11.30;;;;;;;;;;4970107;28;20042;-81
2021/01/11 12:07:09;;;;;;;18.33;11.87;;;;;;;;;;4952595;28;20042;-80
2021/01/11 12:09:35;;;;;;;17.20;11.37;;;;;;;;;;4961527;28;20596;-80
2021/01/11 12:12:01;;;;;;;18.20;12.40;;;;;;;;;;4969900;28;20019;-81
2021/01/11 12:14:29;;;;;;;17.57;11.60;;;;;;;;;;4985550;28;20041;-81
2021/01/11 12:16:56;;;;;;;18.60;11.50;;;;;;;;;;4974380;28;20023;-80
2021/01/11 12:19:28;;;;;;;16.13;11.40;;;;;;;;;;4975551;28;20035;-81
2021/01/11 12:21:54;;;;;;;16.63;11.70;;;;;;;;;;4973340;28;20090;-81
2021/01/11 12:24:20;;;;;;;17.98;12.32;;;;;;;;;;4959045;28;20026;-79
2021/01/11 12:26:47;;;;;;;15.13;11.10;;;;;;;;;;4989000;28;20026;-81
2021/01/11 12:29:14;;;;;;;16.33;11.63;;;;;;;;;;4966405;28;20030;-81
2021/01/11 12:31:47;;;;;;;16.98;13.43;;;;;;;;;;4972137;28;20022;-82
2021/01/11 12:34:14;;;;;;;20.40;12.82;;;;;;;;;;4976597;28;20026;-80
2021/01/11 12:36:41;;;;;;;18.10;12.38;;;;;;;;;;4971094;28;20045;-81
2021/01/11 12:39:09;;;;;;;19.50;12.43;;;;;;;;;;4978174;28;20037;-82
2021/01/11 12:41:37;;;;;;;19.58;13.40;;;;;;;;;;4976814;28;20208;-80
2021/01/11 12:44:12;;;;;;;17.98;12.45;;;;;;;;;;4964355;28;20365;-78
2021/01/11 12:46:38;;;;;;;24.83;17.50;;;;;;;;;;4975223;28;20034;-79
2021/01/11 12:52:06;;;;;;;19.37;13.23;;;;;;;;;;4996907;28;20041;-80
2021/01/11 12:54:32;;;;;;;19.17;12.87;;;;;;;;;;4987176;28;20069;-80
2021/01/11 12:57:05;;;;;;;20.73;14.90;;;;;;;;;;4994388;28;20439;-82
2021/01/11 12:59:36;;;;;;;19.58;14.43;;;;;;;;;;4989513;28;20216;-81
2021/01/11 13:02:11;;;;;;;20.83;14.05;;;;;;;;;;4980581;28;20035;-81
2021/01/11 13:04:40;;;;;;;17.95;13.60;;;;;;;;;;4972018;28;20041;-81
2021/01/11 13:10:50;;;;;;;17.35;13.70;;;;;;;;;;4953115;29;20023;-81
2021/01/11 13:13:18;;;;;;;20.17;13.95;;;;;;;;;;4983236;28;20224;-80
2021/01/11 13:15:52;;;;;;;19.10;13.32;;;;;;;;;;4974689;28;20455;-82
2021/01/11 13:18:19;;;;;;;21.10;13.88;;;;;;;;;;4974686;28;20022;-80
2021/01/11 13:20:47;;;;;;;21.37;14.60;;;;;;;;;;4958805;28;20592;-81
2021/01/11 13:23:52;;;;;;;;;;;;;;;;;;;;;
2021/01/11 13:26:34;;;;;;;;;;;;;;;;;;;;;
2021/01/11 13:32:37;;;;;;;23.33;16.85;;;;;;;;;;4915661;29;20036;-81
2021/01/11 13:35:13;;;;;;;23.77;16.57;;;;;;;;;;4914167;29;20037;-80
2021/01/11 13:37:58;;;;;;;24.33;16.47;;;;;;;;;;4951581;28;20034;-80
2021/01/11 13:40:33;;;;;;;25.13;16.67;;;;;;;;;;4982408;28;20058;-81
2021/01/11 13:43:00;;;;;;;23.47;15.43;;;;;;;;;;4983370;28;20043;-82
2021/01/11 13:45:57;;;;;;;23.53;16.37;;;;;;;;;;4985857;28;20070;-81
2021/01/11 13:48:52;;;;;;;;;;;;;;;;;;;;;
2021/01/11 13:51:38;;;;;;;23.77;15.63;;;;;;;;;;4952498;29;20119;-81
2021/01/11 13:54:25;;;;;;;21.60;14.30;;;;;;;;;;4979303;28;20038;-80
2021/01/11 13:56:51;;;;;;;23.53;15.20;;;;;;;;;;4976312;28;20038;-81
2021/01/11 13:59:18;;;;;;;21.60;14.60;;;;;;;;;;4978886;28;20752;-79
2021/01/11 14:01:46;;;;;;;23.23;15.13;;;;;;;;;;4977790;28;20034;-80
2021/01/11 14:04:13;;;;;;;25.33;16.23;;;;;;;;;;4976657;28;20125;-82
2021/01/11 14:06:39;;;;;;;25.40;16.43;;;;;;;;;;4980455;28;20093;-80
2021/01/11 14:09:06;;;;;;;25.63;16.80;;;;;;;;;;4995905;28;20448;-81
2021/01/11 14:11:40;;;;;;;25.47;15.37;;;;;;;;;;4975295;28;20675;-82
2021/01/11 14:14:13;;;;;;;23.83;14.80;;;;;;;;;;4974416;28;20062;-81
2021/01/11 14:16:42;;;;;;;27.90;15.48;;;;;;;;;;4985479;28;20019;-81
2021/01/11 14:19:08;;;;;;;28.90;16.60;;;;;;;;;;4991033;28;20033;-80
2021/01/11 14:21:36;;;;;;;35.23;20.97;;;;;;;;;;4981639;28;20023;-80
2021/01/11 14:24:03;;;;;;;30.73;17.90;;;;;;;;;;4976090;28;20484;-80
2021/01/11 14:26:33;;;;;;;26.60;15.20;;;;;;;;;;4976830;28;20113;-81
2021/01/11 14:29:04;;;;;;;28.77;15.87;;;;;;;;;;4976642;28;20032;-80
2021/01/11 14:31:38;;;;;;;24.73;15.10;;;;;;;;;;4980489;28;20038;-81
2021/01/11 14:34:04;;;;;;;24.52;15.45;;;;;;;;;;4963812;28;20057;-81
2021/01/11 14:36:34;;;;;;;26.70;16.00;;;;;;;;;;4963117;28;20031;-82
2021/01/11 14:39:00;;;;;;;32.73;18.50;;;;;;;;;;4969303;28;20219;-82
2021/01/11 14:41:29;;;;;;;30.80;19.90;;;;;;;;;;4992240;28;20090;-81
2021/01/11 14:43:55;;;;;;;26.73;14.37;;;;;;;;;;4983551;28;20043;-81
2021/01/11 14:46:23;;;;;;;23.23;13.83;;;;;;;;;;4989119;28;20294;-82
2021/01/11 14:48:49;;;;;;;25.73;13.90;;;;;;;;;;4993488;28;20278;-82
2021/01/11 14:51:15;;;;;;;26.47;13.93;;;;;;;;;;4987825;28;20289;-80
2021/01/11 14:53:41;;;;;;;23.87;13.77;;;;;;;;;;4990170;28;20262;-81
2021/01/11 14:56:08;;;;;;;25.47;14.27;;;;;;;;;;4989136;28;20269;-82
2021/01/11 14:58:34;;;;;;;24.60;14.37;;;;;;;;;;4991110;28;20278;-81
2021/01/11 15:01:00;;;;;;;28.77;15.87;;;;;;;;;;4994461;28;20285;-81
2021/01/11 15:03:27;;;;;;;30.83;16.20;;;;;;;;;;4983024;28;20341;-82
2021/01/11 15:05:53;;;;;;;24.83;16.17;;;;;;;;;;4981003;28;20300;-81
2021/01/11 15:08:19;;;;;;;26.27;14.27;;;;;;;;;;5003763;28;20305;-79
2021/01/11 15:10:48;;;;;;;27.87;14.90;;;;;;;;;;4982032;28;20853;-79
2021/01/11 15:13:14;;;;;;;29.70;16.53;;;;;;;;;;4981291;28;20277;-79
2021/01/11 15:15:40;;;;;;;30.90;18.10;;;;;;;;;;4981752;28;20857;-80
2021/01/11 15:18:06;;;;;;;36.37;19.07;;;;;;;;;;4973497;28;20277;-81
2021/01/11 15:20:32;;;;;;;45.83;22.40;;;;;;;;;;4986298;28;20270;-80
2021/01/11 15:23:00;;;;;;;40.10;21.30;;;;;;;;;;4988246;28;20266;-80
2021/01/11 15:25:26;;;;;;;39.13;20.45;;;;;;;;;;4991040;28;20053;-80
2021/01/11 15:27:52;;;;;;;38.60;20.02;;;;;;;;;;4985315;28;20038;-81
2021/01/11 15:30:19;;;;;;;38.78;19.38;;;;;;;;;;4978209;28;20058;-81
2021/01/11 15:32:45;;;;;;;40.45;19.88;;;;;;;;;;4987946;28;20037;-80
2021/01/11 15:35:11;;;;;;;39.45;18.23;;;;;;;;;;5005725;28;20030;-81
2021/01/11 15:37:40;;;;;;;39.85;19.67;;;;;;;;;;5005696;28;20030;-81
2021/01/11 15:40:06;;;;;;;40.30;19.83;;;;;;;;;;5003766;28;20042;-81
2021/01/11 15:42:32;;;;;;;45.40;22.33;;;;;;;;;;4982748;28;20089;-82
2021/01/11 15:44:59;;;;;;;95.57;37.95;;;;;;;;;;4993228;28;20031;-80
2021/01/11 15:47:25;;;;;;;102.15;40.38;;;;;;;;;;4999055;28;20038;-81
2021/01/11 15:49:52;;;;;;;67.85;30.27;;;;;;;;;;4981222;28;20118;-82
2021/01/11 15:52:18;;;;;;;45.67;22.75;;;;;;;;;;4982812;28;20045;-81
2021/01/11 15:54:45;;;;;;;42.58;20.20;;;;;;;;;;4980744;28;20106;-81
2021/01/11 15:57:11;;;;;;;41.70;19.55;;;;;;;;;;4964460;28;20173;-81
2021/01/11 15:59:38;;;;;;;42.67;20.10;;;;;;;;;;4975493;28;20281;-81
2021/01/11 16:02:05;;;;;;;50.08;21.52;;;;;;;;;;4987226;28;20053;-81
2021/01/11 16:04:31;;;;;;;46.25;22.70;;;;;;;;;;4974059;28;20069;-81
2021/01/11 16:06:58;;;;;;;45.75;22.00;;;;;;;;;;4978917;28;20062;-82
2021/01/11 16:09:24;;;;;;;46.15;21.50;;;;;;;;;;4979081;28;20030;-82
2021/01/11 16:11:50;;;;;;;50.42;23.27;;;;;;;;;;4995263;28;20036;-83
2021/01/11 16:14:16;;;;;;;51.33;23.23;;;;;;;;;;4984672;28;20031;-83
2021/01/11 16:16:43;;;;;;;41.75;20.83;;;;;;;;;;4978578;28;20034;-83
2021/01/11 16:19:09;;;;;;;45.45;21.27;;;;;;;;;;4971585;28;20034;-81